Time;durP1;ratioP1;P1;durP2;ratioP2;P2;SDS_P1;SDS_P2;PMS_P1;PMS_P2;Temp;Humidity;BMP_temperature;BMP_pressure;BME280_temperature;BME280_humidity;BME280_pressure;Samples;Min_cycle;Max_cycle;Signal;HPM_P1;HPM_P2
2021/07/04 00:02:22;;;;;;;;;;;;;;;;;;4956688;28;19926;-90
2021/07/04 00:04:50;;;;;;;;;;;;;;;;;;4939872;28;20386;-90
2021/07/04 00:07:18;;;;;;;;;;;;;;;;;;4945031;28;19926;-90
2021/07/04 00:09:46;;;;;;;;;;;;;;;;;;4968785;28;19933;-90
2021/07/04 00:12:14;;;;;;;;;;;;;;;;;;4960310;28;19934;-89
2021/07/04 00:14:44;;;;;;;;;;;;;;;;;;4948768;28;19927;-90
2021/07/04 00:17:12;;;;;;;;;;;;;;;;;;4934443;28;19930;-89
2021/07/04 00:19:42;;;;;;;;;;;;;;;;;;4958820;28;19932;-88
2021/07/04 00:22:10;;;;;;;;;;;;;;;;;;4961803;28;19926;-89
2021/07/04 00:24:38;;;;;;;;;;;;;;;;;;4940322;28;19926;-88
2021/07/04 00:27:07;;;;;;;;;;;;;;;;;;4962190;28;19926;-89
2021/07/04 00:29:35;;;;;;;;;;;;;;;;;;4965206;28;19933;-89
2021/07/04 00:32:05;;;;;;;;;;;;;;;;;;4940211;28;19939;-89
2021/07/04 00:34:33;;;;;;;;;;;;;;;;;;4942040;28;19933;-89
2021/07/04 00:37:01;;;;;;;;;;;;;;;;;;4953155;28;19926;-89
2021/07/04 00:39:29;;;;;;;;;;;;;;;;;;4937435;28;19927;-89
2021/07/04 00:41:58;;;;;;;;;;;;;;;;;;4934721;28;19927;-89
2021/07/04 00:44:27;;;;;;;;;;;;;;;;;;4940331;28;19945;-90
2021/07/04 00:47:00;;;;;;;;;;;;;;;;;;4953656;28;19926;-89
2021/07/04 00:49:30;;;;;;;;;;;;;;;;;;4951199;28;19926;-88
2021/07/04 00:51:59;;;;;;;;;;;;;;;;;;4968123;28;19926;-89
2021/07/04 00:54:27;;;;;;;;;;;;;;;;;;4954144;28;20297;-89
2021/07/04 00:56:55;;;;;;;;;;;;;;;;;;4945989;28;19934;-90
2021/07/04 00:59:23;;;;;;;;;;;;;;;;;;4955580;28;19926;-90
2021/07/04 01:01:56;;;;;;;;;;;;;;;;;;4969941;28;19926;-89
2021/07/04 01:04:25;;;;;;;;;;;;;;;;;;4968029;28;19927;-90
2021/07/04 01:06:56;;;;;;;;;;;;;;;;;;4951068;28;19941;-90
2021/07/04 01:09:24;;;;;;;;;;;;;;;;;;4963575;28;19937;-91
2021/07/04 01:11:53;;;;;;;;;;;;;;;;;;4951724;28;19930;-89
2021/07/04 01:14:22;;;;;;;;;;;;;;;;;;4935540;28;19926;-89
2021/07/04 01:16:51;;;;;;;;;;;;;;;;;;4956455;28;19930;-88
2021/07/04 01:19:21;;;;;;;;;;;;;;;;;;4953643;28;19934;-89
2021/07/04 01:21:50;;;;;;;;;;;;;;;;;;4955400;28;19926;-89
2021/07/04 01:24:19;;;;;;;;;;;;;;;;;;4938770;28;19937;-89
2021/07/04 01:26:48;;;;;;;;;;;;;;;;;;4938601;28;19956;-89
2021/07/04 01:29:18;;;;;;;;;;;;;;;;;;4933757;28;19926;-89
2021/07/04 01:31:47;;;;;;;;;;;;;;;;;;4941223;28;19930;-89
2021/07/04 01:34:17;;;;;;;;;;;;;;;;;;4937852;28;19926;-90
2021/07/04 01:36:46;;;;;;;;;;;;;;;;;;4934423;28;19927;-89
2021/07/04 01:39:15;;;;;;;;;;;;;;;;;;4939077;28;19933;-90
2021/07/04 01:41:50;;;;;;;;;;;;;;;;;;4954054;28;19926;-89
2021/07/04 01:44:24;;;;;;;;;;;;;;;;;;4936087;28;19938;-90
2021/07/04 01:46:53;;;;;;;;;;;;;;;;;;4960346;28;19933;-90
2021/07/04 01:49:25;;;;;;;;;;;;;;;;;;4940880;28;20329;-90
2021/07/04 01:51:54;;;;;;;;;;;;;;;;;;4958779;28;19937;-89
2021/07/04 01:54:30;;;;;;;;;;;;;;;;;;4941032;28;19938;-91
2021/07/04 01:57:11;;;;;;;;;;;;;;;;;;4963069;28;19910;-89
2021/07/04 01:59:44;;;;;;;;;;;;;;;;;;4963906;28;19918;-89
2021/07/04 02:02:19;;;;;;;;;;;;;;;;;;4978096;28;19914;-90
2021/07/04 02:04:48;;;;;;;;;;;;;;;;;;4962862;28;19932;-91
2021/07/04 02:07:25;;;;;;;;;;;;;;;;;;4935516;28;19927;-90
2021/07/04 02:09:59;;;;;;;;;;;;;;;;;;4946253;28;20104;-89
2021/07/04 02:12:39;;;;;;;;;;;;;;;;;;4956259;28;20289;-89
2021/07/04 02:15:09;;;;;;;;;;;;;;;;;;4954298;28;19933;-90
2021/07/04 02:17:46;;;;;;;;;;;;;;;;;;4956864;28;20440;-89
2021/07/04 02:20:40;;;;;;;;;;;;;;;;;;4946478;28;20385;-90
2021/07/04 02:23:26;;;;;;;;;;;;;;;;;;4959855;28;19926;-89
2021/07/04 02:26:03;;;;;;;;;;;;;;;;;;4972466;28;19926;-87
2021/07/04 02:28:37;;;;;;;;;;;;;;;;;;4955334;28;19926;-89
2021/07/04 02:31:12;;;;;;;;;;;;;;;;;;4939952;28;19933;-89
2021/07/04 02:33:42;;;;;;;;;;;;;;;;;;4975707;28;19930;-89
2021/07/04 02:36:11;;;;;;;;;;;;;;;;;;4955399;28;19933;-89
2021/07/04 02:38:40;;;;;;;;;;;;;;;;;;4956224;28;19945;-89
2021/07/04 02:41:08;;;;;;;;;;;;;;;;;;4936977;29;19930;-89
2021/07/04 02:43:37;;;;;;;;;;;;;;;;;;4955777;28;19926;-89
2021/07/04 02:46:09;;;;;;;;;;;;;;;;;;4940386;28;19937;-89
2021/07/04 02:48:38;;;;;;;;;;;;;;;;;;4979550;28;19930;-88
2021/07/04 02:51:06;;;;;;;;;;;;;;;;;;4967822;28;19933;-88
2021/07/04 02:53:35;;;;;;;;;;;;;;;;;;4943260;28;19933;-89
2021/07/04 02:56:10;;;;;;;;;;;;;;;;;;4941614;28;20386;-89
2021/07/04 02:58:41;;;;;;;;;;;;;;;;;;4966891;28;20021;-88
2021/07/04 03:01:09;;;;;;;;;;;;;;;;;;4943561;28;20390;-89
2021/07/04 03:03:38;;;;;;;;;;;;;;;;;;4947535;28;19930;-90
2021/07/04 03:06:06;;;;;;;;;;;;;;;;;;4955262;28;19926;-89
2021/07/04 03:08:36;;;;;;;;;;;;;;;;;;4944077;28;19929;-88
2021/07/04 03:11:05;;;;;;;;;;;;;;;;;;4958013;28;19926;-89
2021/07/04 03:13:36;;;;;;;;;;;;;;;;;;4942055;28;19933;-90
2021/07/04 03:16:06;;;;;;;;;;;;;;;;;;4947857;28;19930;-89
2021/07/04 03:18:35;;;;;;;;;;;;;;;;;;4968997;28;20282;-90
2021/07/04 03:21:04;;;;;;;;;;;;;;;;;;4947859;28;19926;-90
2021/07/04 03:23:33;;;;;;;;;;;;;;;;;;4947182;28;19934;-90
2021/07/04 03:26:07;;;;;;;;;;;;;;;;;;4968243;28;20394;-89
2021/07/04 03:28:36;;;;;;;;;;;;;;;;;;4938992;28;19926;-89
2021/07/04 03:31:25;;;;;;;;;;;;;;;;;;4961170;28;19926;-90
2021/07/04 03:33:54;;;;;;;;;;;;;;;;;;4941316;28;20424;-89
2021/07/04 03:36:26;;;;;;;;;;;;;;;;;;4936455;29;19927;-90
2021/07/04 03:38:54;;;;;;;;;;;;;;;;;;4948128;28;19927;-90
2021/07/04 03:41:23;;;;;;;;;;;;;;;;;;4949657;28;19927;-90
2021/07/04 03:43:52;;;;;;;;;;;;;;;;;;4972198;28;19926;-90
2021/07/04 03:46:22;;;;;;;;;;;;;;;;;;4958432;28;19933;-89
2021/07/04 03:48:52;;;;;;;;;;;;;;;;;;4961696;28;20416;-89
2021/07/04 03:51:27;;;;;;;;;;;;;;;;;;4956376;28;19933;-90
2021/07/04 03:53:58;;;;;;;;;;;;;;;;;;4956221;28;19933;-90
2021/07/04 03:56:26;;;;;;;;;;;;;;;;;;4970590;28;19938;-90
2021/07/04 03:58:59;;;;;;;;;;;;;;;;;;4938586;28;19930;-90
2021/07/04 04:01:27;;;;;;;;;;;;;;;;;;4953220;28;19925;-90
2021/07/04 04:03:57;;;;;;;;;;;;;;;;;;4965432;28;19934;-90
2021/07/04 04:06:28;;;;;;;;;;;;;;;;;;4962076;28;19926;-90
2021/07/04 04:09:09;;;;;;;;;;;;;;;;;;4937217;28;19926;-89
2021/07/04 04:11:44;;;;;;;;;;;;;;;;;;4940253;28;19927;-89
2021/07/04 04:14:19;;;;;;;;;;;;;;;;;;4958271;28;19926;-88
2021/07/04 04:16:48;;;;;;;;;;;;;;;;;;4968219;28;19925;-89
2021/07/04 04:19:22;;;;;;;;;;;;;;;;;;4962030;28;19930;-89
2021/07/04 04:21:50;;;;;;;;;;;;;;;;;;4953907;28;20325;-89
2021/07/04 04:24:18;;;;;;;;;;;;;;;;;;4954838;28;19934;-89
2021/07/04 04:26:48;;;;;;;;;;;;;;;;;;4962210;28;19933;-89
2021/07/04 04:29:16;;;;;;;;;;;;;;;;;;4964730;28;19917;-87
2021/07/04 04:31:45;;;;;;;;;;;;;;;;;;4973213;28;19926;-89
2021/07/04 04:34:14;;;;;;;;;;;;;;;;;;4975966;28;20333;-89
2021/07/04 04:36:43;;;;;;;;;;;;;;;;;;4966385;28;19934;-88
2021/07/04 04:39:11;;;;;;;;;;;;;;;;;;4962879;28;20394;-89
2021/07/04 04:41:39;;;;;;;;;;;;;;;;;;4950627;28;20420;-89
2021/07/04 04:44:10;;;;;;;;;;;;;;;;;;4959525;28;19926;-89
2021/07/04 04:46:38;;;;;;;;;;;;;;;;;;4945757;28;19925;-89
2021/07/04 04:49:06;;;;;;;;;;;;;;;;;;4966756;28;19930;-89
2021/07/04 04:51:35;;;;;;;;;;;;;;;;;;4969877;28;19915;-87
2021/07/04 04:54:04;;;;;;;;;;;;;;;;;;4987409;28;19936;-88
2021/07/04 05:00:09;;;;;;;;;;;;;;;;;;4998696;28;19920;-91
2021/07/04 05:02:44;;;;;;;;;;;;;;;;;;4973549;28;19926;-90
2021/07/04 05:05:13;;;;;;;;;;;;;;;;;;4966080;28;19920;-90
2021/07/04 05:07:41;;;;;;;;;;;;;;;;;;4965184;28;19922;-91
2021/07/04 05:10:12;;;;;;;;;;;;;;;;;;4958315;28;19933;-90
2021/07/04 05:12:40;;;;;;;;;;;;;;;;;;4942919;28;20294;-89
2021/07/04 05:15:09;;;;;;;;;;;;;;;;;;4951985;28;19941;-90
2021/07/04 05:17:37;;;;;;;;;;;;;;;;;;4948104;28;19926;-91
2021/07/04 05:20:06;;;;;;;;;;;;;;;;;;4947274;28;19926;-90
2021/07/04 05:22:34;;;;;;;;;;;;;;;;;;4943014;28;20784;-89
2021/07/04 05:25:05;;;;;;;;;;;;;;;;;;4937840;29;19930;-88
2021/07/04 05:27:35;;;;;;;;;;;;;;;;;;4947138;28;20306;-90
2021/07/04 05:30:03;;;;;;;;;;;;;;;;;;4949924;28;19933;-89
2021/07/04 05:32:31;;;;;;;;;;;;;;;;;;4938147;28;19942;-89
2021/07/04 05:35:00;;;;;;;;;;;;;;;;;;4954045;28;19933;-89
2021/07/04 05:37:28;;;;;;;;;;;;;;;;;;4956739;28;19926;-89
2021/07/04 05:39:58;;;;;;;;;;;;;;;;;;4939964;28;19926;-87
2021/07/04 05:42:26;;;;;;;;;;;;;;;;;;4945600;28;19933;-89
2021/07/04 05:44:56;;;;;;;;;;;;;;;;;;4954265;28;20309;-89
2021/07/04 05:47:24;;;;;;;;;;;;;;;;;;4940068;28;19926;-89
2021/07/04 05:49:53;;;;;;;;;;;;;;;;;;4940843;28;19934;-88
2021/07/04 05:52:21;;;;;;;;;;;;;;;;;;4937013;28;20408;-87
2021/07/04 05:54:49;;;;;;;;;;;;;;;;;;4954632;28;19934;-89
2021/07/04 05:57:18;;;;;;;;;;;;;;;;;;4940876;28;20275;-88
2021/07/04 05:59:46;;;;;;;;;;;;;;;;;;4958048;28;19937;-88
2021/07/04 06:02:16;;;;;;;;;;;;;;;;;;4961373;28;19941;-88
2021/07/04 06:04:44;;;;;;;;;;;;;;;;;;4952922;28;19926;-92
2021/07/04 06:07:12;;;;;;;;;;;;;;;;;;4959342;28;20503;-88
2021/07/04 06:09:40;;;;;;;;;;;;;;;;;;4941399;28;19926;-88
2021/07/04 06:12:09;;;;;;;;;;;;;;;;;;4956654;28;19926;-88
2021/07/04 06:14:37;;;;;;;;;;;;;;;;;;4957451;28;19933;-89
2021/07/04 06:17:06;;;;;;;;;;;;;;;;;;4942278;28;19926;-88
2021/07/04 06:19:36;;;;;;;;;;;;;;;;;;4952833;28;19926;-88
2021/07/04 06:22:04;;;;;;;;;;;;;;;;;;4943178;28;19930;-88
2021/07/04 06:24:33;;;;;;;;;;;;;;;;;;4957080;28;19937;-89
2021/07/04 06:27:02;;;;;;;;;;;;;;;;;;4957827;28;20305;-90
2021/07/04 06:29:30;;;;;;;;;;;;;;;;;;4938059;28;20402;-89
2021/07/04 06:31:59;;;;;;;;;;;;;;;;;;4937724;28;19926;-90
2021/07/04 06:34:27;;;;;;;;;;;;;;;;;;4942598;28;19927;-90
2021/07/04 06:36:56;;;;;;;;;;;;;;;;;;4950768;28;19933;-88
2021/07/04 06:39:27;;;;;;;;;;;;;;;;;;4939142;28;19926;-89
2021/07/04 06:42:02;;;;;;;;;;;;;;;;;;4961728;28;19930;-90
2021/07/04 06:44:38;;;;;;;;;;;;;;;;;;4934421;28;19946;-89
2021/07/04 06:47:07;;;;;;;;;;;;;;;;;;4954979;28;19945;-88
2021/07/04 06:49:36;;;;;;;;;;;;;;;;;;4956605;28;19934;-88
2021/07/04 06:52:06;;;;;;;;;;;;;;;;;;4945997;28;19926;-87
2021/07/04 06:54:35;;;;;;;;;;;;;;;;;;4928625;28;19942;-89
2021/07/04 06:59:46;;;;;;;;;;;;;;;;;;4934306;28;19960;-89
2021/07/04 07:02:14;;;;;;;;;;;;;;;;;;4955568;28;19926;-88
2021/07/04 07:04:43;;;;;;;;;;;;;;;;;;4954041;28;19920;-89
2021/07/04 07:07:13;;;;;;;;;;;;;;;;;;4980427;28;19922;-89
2021/07/04 07:09:45;;;;;;;;;;;;;;;;;;4996586;28;19924;-90
2021/07/04 07:12:51;;;;;;;;;;;;;;;;;;4980405;28;19916;-90
2021/07/04 07:15:25;;;;;;;;;;;;;;;;;;4979991;28;19930;-90
2021/07/04 07:17:54;;;;;;;;;;;;;;;;;;4984199;28;19910;-89
2021/07/04 07:20:29;;;;;;;;;;;;;;;;;;4969559;28;19929;-89
2021/07/04 07:22:59;;;;;;;;;;;;;;;;;;4966490;28;19926;-88
2021/07/04 07:25:38;;;;;;;;;;;;;;;;;;4949843;28;19937;-88
2021/07/04 07:28:06;;;;;;;;;;;;;;;;;;4939968;28;19926;-89
2021/07/04 07:30:41;;;;;;;;;;;;;;;;;;4958447;28;19927;-88
2021/07/04 07:33:11;;;;;;;;;;;;;;;;;;4974480;28;19926;-88
2021/07/04 07:35:41;;;;;;;;;;;;;;;;;;4942633;28;19933;-89
2021/07/04 07:38:14;;;;;;;;;;;;;;;;;;4957875;28;19926;-89
2021/07/04 07:40:45;;;;;;;;;;;;;;;;;;4955272;28;19930;-87
2021/07/04 07:43:13;;;;;;;;;;;;;;;;;;4953321;28;19926;-88
2021/07/04 07:45:51;;;;;;;;;;;;;;;;;;4951216;28;19926;-88
2021/07/04 07:48:20;;;;;;;;;;;;;;;;;;4957873;28;19926;-88
2021/07/04 07:50:55;;;;;;;;;;;;;;;;;;4959394;28;19934;-88
2021/07/04 07:53:25;;;;;;;;;;;;;;;;;;4938104;28;19933;-86
2021/07/04 07:55:53;;;;;;;;;;;;;;;;;;4941777;28;20298;-88
2021/07/04 07:58:24;;;;;;;;;;;;;;;;;;4956982;28;19926;-88
2021/07/04 08:00:57;;;;;;;;;;;;;;;;;;4955316;28;19926;-88
2021/07/04 08:03:28;;;;;;;;;;;;;;;;;;4947109;28;19930;-85
2021/07/04 08:05:56;;;;;;;;;;;;;;;;;;4964624;28;19933;-86
2021/07/04 08:08:26;;;;;;;;;;;;;;;;;;4941158;28;19930;-85
2021/07/04 08:10:54;;;;;;;;;;;;;;;;;;4940156;28;20298;-85
2021/07/04 08:13:22;;;;;;;;;;;;;;;;;;4953541;28;19930;-86
2021/07/04 08:15:58;;;;;;;;;;;;;;;;;;4947264;28;19933;-87
2021/07/04 08:18:29;;;;;;;;;;;;;;;;;;4942818;28;19926;-86
2021/07/04 08:20:58;;;;;;;;;;;;;;;;;;4955312;28;20379;-89
2021/07/04 08:23:29;;;;;;;;;;;;;;;;;;4938494;28;20492;-88
2021/07/04 08:25:57;;;;;;;;;;;;;;;;;;4963537;28;19934;-88
2021/07/04 08:28:25;;;;;;;;;;;;;;;;;;4963100;28;19930;-90
2021/07/04 08:30:53;;;;;;;;;;;;;;;;;;4967969;28;19927;-88
2021/07/04 08:33:21;;;;;;;;;;;;;;;;;;4959720;28;20414;-88
2021/07/04 08:35:49;;;;;;;;;;;;;;;;;;4937759;28;19926;-89
2021/07/04 08:38:18;;;;;;;;;;;;;;;;;;4936789;28;19926;-87
2021/07/04 08:40:47;;;;;;;;;;;;;;;;;;4954729;28;19930;-85
2021/07/04 08:43:25;;;;;;;;;;;;;;;;;;4968677;28;20148;-86
2021/07/04 08:46:25;;;;;;;;;;;;;;;;;;4966981;28;19917;-86
2021/07/04 08:48:54;;;;;;;;;;;;;;;;;;4975900;28;19926;-87
2021/07/04 08:51:22;;;;;;;;;;;;;;;;;;4964479;28;19916;-85
2021/07/04 08:53:50;;;;;;;;;;;;;;;;;;4972041;28;19955;-87
2021/07/04 08:56:19;;;;;;;;;;;;;;;;;;4968366;28;19914;-89
2021/07/04 08:58:48;;;;;;;;;;;;;;;;;;4969913;28;19910;-88
2021/07/04 09:01:28;;;;;;;;;;;;;;;;;;4968856;28;19933;-88
2021/07/04 09:04:08;;;;;;;;;;;;;;;;;;4965239;28;20349;-87
2021/07/04 09:06:36;;;;;;;;;;;;;;;;;;4939469;28;19930;-89
2021/07/04 09:09:15;;;;;;;;;;;;;;;;;;4956244;28;19937;-87
2021/07/04 09:11:55;;;;;;;;;;;;;;;;;;4945663;28;19948;-88
2021/07/04 09:14:27;;;;;;;;;;;;;;;;;;4983481;28;19932;-88
2021/07/04 09:16:55;;;;;;;;;;;;;;;;;;4971611;28;19933;-88
2021/07/04 09:19:26;;;;;;;;;;;;;;;;;;4966882;28;20712;-88
2021/07/04 09:21:55;;;;;;;;;;;;;;;;;;4974379;28;19934;-88
2021/07/04 09:24:24;;;;;;;;;;;;;;;;;;4951417;28;19933;-88
2021/07/04 09:26:52;;;;;;;;;;;;;;;;;;4970359;28;19933;-88
2021/07/04 09:29:35;;;;;;;;;;;;;;;;;;4973987;28;19933;-88
2021/07/04 09:32:11;;;;;;;;;;;;;;;;;;4940849;28;20440;-88
2021/07/04 09:34:39;;;;;;;;;;;;;;;;;;4973065;28;19932;-88
2021/07/04 09:37:07;;;;;;;;;;;;;;;;;;4960614;28;20314;-85
2021/07/04 09:39:35;;;;;;;;;;;;;;;;;;4947774;28;20309;-87
2021/07/04 09:42:07;;;;;;;;;;;;;;;;;;4958020;28;20322;-87
2021/07/04 09:44:36;;;;;;;;;;;;;;;;;;4950036;28;19937;-87
2021/07/04 09:47:16;;;;;;;;;;;;;;;;;;4963896;28;20283;-88
2021/07/04 09:49:44;;;;;;;;;;;;;;;;;;4958570;28;20321;-85
2021/07/04 09:52:13;;;;;;;;;;;;;;;;;;4956324;28;19927;-89
2021/07/04 09:54:57;;;;;;;;;;;;;;;;;;4945705;28;19926;-88
2021/07/04 09:57:26;;;;;;;;;;;;;;;;;;4951818;28;19934;-89
2021/07/04 10:00:13;;;;;;;;;;;;;;;;;;4954856;28;19926;-89
2021/07/04 10:02:50;;;;;;;;;;;;;;;;;;4947452;28;19930;-89
2021/07/04 10:05:19;;;;;;;;;;;;;;;;;;4951368;28;20322;-87
2021/07/04 10:07:47;;;;;;;;;;;;;;;;;;4946771;28;19953;-89
2021/07/04 10:10:15;;;;;;;;;;;;;;;;;;4955891;28;19933;-89
2021/07/04 10:12:44;;;;;;;;;;;;;;;;;;4956213;28;20412;-89
2021/07/04 10:15:12;;;;;;;;;;;;;;;;;;4948684;28;20904;-89
2021/07/04 10:17:40;;;;;;;;;;;;;;;;;;4955803;28;19926;-90
2021/07/04 10:20:11;;;;;;;;;;;;;;;;;;4963267;28;19930;-88
2021/07/04 10:22:39;;;;;;;;;;;;;;;;;;4948471;28;19926;-88
2021/07/04 10:25:08;;;;;;;;;;;;;;;;;;4944185;28;20314;-88
2021/07/04 10:27:37;;;;;;;;;;;;;;;;;;4971377;28;19926;-89
2021/07/04 10:30:06;;;;;;;;;;;;;;;;;;4951751;28;19933;-88
2021/07/04 10:32:34;;;;;;;;;;;;;;;;;;4951669;28;19927;-88
2021/07/04 10:35:07;;;;;;;;;;;;;;;;;;4946710;28;19934;-88
2021/07/04 10:37:39;;;;;;;;;;;;;;;;;;4949651;28;20291;-87
2021/07/04 10:40:09;;;;;;;;;;;;;;;;;;4951898;28;20405;-89
2021/07/04 10:42:42;;;;;;;;;;;;;;;;;;4955559;28;19933;-88
2021/07/04 10:45:30;;;;;;;;;;;;;;;;;;4952665;28;19927;-88
2021/07/04 10:47:59;;;;;;;;;;;;;;;;;;4945801;28;19930;-87
2021/07/04 10:50:27;;;;;;;;;;;;;;;;;;4949319;28;19941;-86
2021/07/04 10:52:57;;;;;;;;;;;;;;;;;;4937656;28;19934;-88
2021/07/04 10:55:32;;;;;;;;;;;;;;;;;;4954086;28;19930;-86
2021/07/04 10:58:02;;;;;;;;;;;;;;;;;;4956677;28;19926;-89
2021/07/04 11:00:34;;;;;;;;;;;;;;;;;;4966932;28;20357;-86
2021/07/04 11:03:03;;;;;;;;;;;;;;;;;;4956803;28;19933;-87
2021/07/04 11:05:47;;;;;;;;;;;;;;;;;;4940680;28;20405;-88
2021/07/04 11:08:21;;;;;;;;;;;;;;;;;;4951679;28;19934;-88
2021/07/04 11:11:05;;;;;;;;;;;;;;;;;;4941156;28;19930;-87
2021/07/04 11:13:41;;;;;;;;;;;;;;;;;;4954035;28;19941;-88
2021/07/04 11:16:14;;;;;;;;;;;;;;;;;;4974587;28;19983;-87
2021/07/04 11:18:43;;;;;;;;;;;;;;;;;;4968040;28;19934;-90
2021/07/04 11:21:12;;;;;;;;;;;;;;;;;;4951003;28;19933;-89
2021/07/04 11:23:42;;;;;;;;;;;;;;;;;;4973516;28;19949;-89
2021/07/04 11:26:13;;;;;;;;;;;;;;;;;;4957271;28;19937;-89
2021/07/04 11:28:42;;;;;;;;;;;;;;;;;;4960332;28;19927;-88
2021/07/04 11:31:23;;;;;;;;;;;;;;;;;;4967377;28;19926;-88
2021/07/04 11:33:52;;;;;;;;;;;;;;;;;;4943341;28;19926;-87
2021/07/04 11:36:25;;;;;;;;;;;;;;;;;;4935749;28;19937;-86
2021/07/04 11:38:56;;;;;;;;;;;;;;;;;;4952817;28;19938;-84
2021/07/04 11:41:26;;;;;;;;;;;;;;;;;;4968012;28;19933;-87
2021/07/04 11:43:55;;;;;;;;;;;;;;;;;;4940941;28;19930;-86
2021/07/04 11:46:23;;;;;;;;;;;;;;;;;;4964961;28;19941;-86
2021/07/04 11:48:53;;;;;;;;;;;;;;;;;;4944401;28;20055;-86
2021/07/04 11:51:23;;;;;;;;;;;;;;;;;;4981552;28;19914;-86
2021/07/04 11:53:52;;;;;;;;;;;;;;;;;;4945924;28;20659;-87
2021/07/04 11:56:21;;;;;;;;;;;;;;;;;;4936383;28;19937;-87
2021/07/04 11:58:49;;;;;;;;;;;;;;;;;;4969369;28;19937;-87
2021/07/04 12:01:18;;;;;;;;;;;;;;;;;;4951736;28;19926;-87
2021/07/04 12:03:51;;;;;;;;;;;;;;;;;;4939882;28;19961;-86
2021/07/04 12:06:19;;;;;;;;;;;;;;;;;;4937023;28;19930;-87
2021/07/04 12:08:51;;;;;;;;;;;;;;;;;;4957766;28;19930;-87
2021/07/04 12:11:19;;;;;;;;;;;;;;;;;;4956881;28;19937;-87
2021/07/04 12:13:49;;;;;;;;;;;;;;;;;;4952943;28;19931;-87
2021/07/04 12:16:17;;;;;;;;;;;;;;;;;;4950989;28;19926;-88
2021/07/04 12:18:46;;;;;;;;;;;;;;;;;;4951205;28;19933;-89
2021/07/04 12:21:14;;;;;;;;;;;;;;;;;;4974006;28;19933;-88
2021/07/04 12:23:42;;;;;;;;;;;;;;;;;;4955309;28;20865;-89
2021/07/04 12:26:10;;;;;;;;;;;;;;;;;;4945921;28;20417;-87
2021/07/04 12:28:38;;;;;;;;;;;;;;;;;;4967307;28;19926;-93
2021/07/04 12:31:08;;;;;;;;;;;;;;;;;;4951660;28;19926;-92
2021/07/04 12:33:38;;;;;;;;;;;;;;;;;;4943561;28;20386;-92
2021/07/04 12:36:09;;;;;;;;;;;;;;;;;;4974193;28;19930;-92
2021/07/04 12:38:38;;;;;;;;;;;;;;;;;;4969155;28;19930;-91
2021/07/04 12:41:13;;;;;;;;;;;;;;;;;;4971708;28;19953;-90
2021/07/04 12:43:42;;;;;;;;;;;;;;;;;;4967844;28;19926;-90
2021/07/04 12:46:15;;;;;;;;;;;;;;;;;;4936623;28;19930;-91
2021/07/04 12:48:44;;;;;;;;;;;;;;;;;;4952551;28;19927;-91
2021/07/04 12:51:13;;;;;;;;;;;;;;;;;;4946189;28;19934;-90
2021/07/04 12:53:47;;;;;;;;;;;;;;;;;;4953927;28;19930;-91
2021/07/04 12:56:19;;;;;;;;;;;;;;;;;;4951157;28;19955;-91
2021/07/04 12:58:52;;;;;;;;;;;;;;;;;;4943584;28;19934;-91
2021/07/04 13:01:24;;;;;;;;;;;;;;;;;;4960855;28;19910;-88
2021/07/04 13:03:55;;;;;;;;;;;;;;;;;;4976435;28;19926;-89
2021/07/04 13:06:33;;;;;;;;;;;;;;;;;;4990781;28;19910;-88
2021/07/04 13:09:02;;;;;;;;;;;;;;;;;;4952676;28;20314;-91
2021/07/04 13:11:32;;;;;;;;;;;;;;;;;;4975455;28;19933;-91
2021/07/04 13:14:01;;;;;;;;;;;;;;;;;;4941160;28;21198;-92
2021/07/04 13:16:31;;;;;;;;;;;;;;;;;;4945002;28;19933;-91
2021/07/04 13:19:14;;;;;;;;;;;;;;;;;;4936296;28;19926;-92
2021/07/04 13:21:43;;;;;;;;;;;;;;;;;;4950774;28;19926;-92
2021/07/04 13:24:32;;;;;;;;;;;;;;;;;;4946255;28;19933;-91
2021/07/04 13:27:01;;;;;;;;;;;;;;;;;;4939946;28;20016;-92
2021/07/04 13:29:31;;;;;;;;;;;;;;;;;;4950417;28;19930;-92
2021/07/04 13:32:12;;;;;;;;;;;;;;;;;;4956159;28;19926;-92
2021/07/04 13:34:42;;;;;;;;;;;;;;;;;;4954573;28;19927;-91
2021/07/04 13:37:15;;;;;;;;;;;;;;;;;;4949129;28;19925;-91
2021/07/04 13:39:57;;;;;;;;;;;;;;;;;;4944839;28;19934;-92
2021/07/04 13:42:34;;;;;;;;;;;;;;;;;;4970149;28;20394;-90
2021/07/04 13:45:07;;;;;;;;;;;;;;;;;;4953002;28;19926;-90
2021/07/04 13:47:39;;;;;;;;;;;;;;;;;;4953054;28;20414;-90
2021/07/04 13:50:08;;;;;;;;;;;;;;;;;;4944006;28;19926;-91
2021/07/04 13:52:37;;;;;;;;;;;;;;;;;;4948038;28;19933;-91
2021/07/04 13:55:14;;;;;;;;;;;;;;;;;;4942802;28;19934;-91
2021/07/04 13:57:43;;;;;;;;;;;;;;;;;;4945017;28;20385;-90
2021/07/04 14:00:13;;;;;;;;;;;;;;;;;;4943860;28;19937;-91
2021/07/04 14:02:43;;;;;;;;;;;;;;;;;;4941325;28;19926;-90
2021/07/04 14:05:12;;;;;;;;;;;;;;;;;;4947900;28;19933;-91
2021/07/04 14:07:55;;;;;;;;;;;;;;;;;;4942676;28;19926;-91
2021/07/04 14:14:32;;;;;;;;;;;;;;;;;;4972731;28;19933;-90
2021/07/04 14:17:03;;;;;;;;;;;;;;;;;;4938781;28;19926;-92
2021/07/04 14:19:33;;;;;;;;;;;;;;;;;;4958533;28;19937;-91
2021/07/04 14:22:02;;;;;;;;;;;;;;;;;;4940961;28;20303;-91
2021/07/04 14:24:31;;;;;;;;;;;;;;;;;;4954858;28;19931;-90
2021/07/04 14:27:00;;;;;;;;;;;;;;;;;;4946501;28;20317;-92
2021/07/04 14:29:28;;;;;;;;;;;;;;;;;;4967704;28;19994;-91
2021/07/04 14:31:57;;;;;;;;;;;;;;;;;;4980858;28;19926;-90
2021/07/04 14:34:25;;;;;;;;;;;;;;;;;;4950240;28;19926;-92
2021/07/04 14:36:55;;;;;;;;;;;;;;;;;;4948435;29;19934;-92
2021/07/04 14:39:23;;;;;;;;;;;;;;;;;;4959130;28;19926;-91
2021/07/04 14:41:52;;;;;;;;;;;;;;;;;;4973328;28;20310;-94
2021/07/04 14:44:22;;;;;;;;;;;;;;;;;;4984221;28;19944;-92
2021/07/04 14:46:50;;;;;;;;;;;;;;;;;;4977902;28;19932;-89
2021/07/04 14:49:18;;;;;;;;;;;;;;;;;;4956844;28;20416;-89
2021/07/04 14:51:47;;;;;;;;;;;;;;;;;;4936356;28;19930;-89
2021/07/04 14:54:17;;;;;;;;;;;;;;;;;;4945550;28;20426;-89
2021/07/04 14:56:45;;;;;;;;;;;;;;;;;;4958549;28;20310;-89
2021/07/04 14:59:14;;;;;;;;;;;;;;;;;;4942739;28;19930;-92
2021/07/04 15:01:42;;;;;;;;;;;;;;;;;;4958960;28;20391;-91
2021/07/04 15:04:11;;;;;;;;;;;;;;;;;;4977303;28;19926;-92
2021/07/04 15:06:41;;;;;;;;;;;;;;;;;;4950551;28;19926;-92
2021/07/04 15:09:09;;;;;;;;;;;;;;;;;;4973245;28;19930;-91
2021/07/04 15:11:45;;;;;;;;;;;;;;;;;;4947671;28;19933;-88
2021/07/04 15:14:14;;;;;;;;;;;;;;;;;;4959062;28;19931;-91
2021/07/04 15:16:42;;;;;;;;;;;;;;;;;;4958501;28;19926;-92
2021/07/04 15:19:11;;;;;;;;;;;;;;;;;;4980833;28;20382;-92
2021/07/04 15:21:39;;;;;;;;;;;;;;;;;;4947143;28;20299;-92
2021/07/04 15:24:08;;;;;;;;;;;;;;;;;;4941511;28;19926;-93
2021/07/04 15:26:39;;;;;;;;;;;;;;;;;;4958401;28;19926;-92
2021/07/04 15:29:08;;;;;;;;;;;;;;;;;;4950232;28;19955;-91
2021/07/04 15:31:39;;;;;;;;;;;;;;;;;;4983524;28;19930;-92
2021/07/04 15:34:07;;;;;;;;;;;;;;;;;;4967127;28;19926;-92
2021/07/04 15:36:35;;;;;;;;;;;;;;;;;;4973762;28;20295;-93
2021/07/04 15:39:06;;;;;;;;;;;;;;;;;;4967426;28;19959;-92
2021/07/04 15:41:35;;;;;;;;;;;;;;;;;;4950593;28;19934;-93
2021/07/04 15:44:03;;;;;;;;;;;;;;;;;;4948900;28;19926;-94
2021/07/04 15:46:34;;;;;;;;;;;;;;;;;;4978700;28;19910;-92
2021/07/04 15:49:07;;;;;;;;;;;;;;;;;;4966672;28;19914;-94
2021/07/04 15:51:35;;;;;;;;;;;;;;;;;;4965795;28;19910;-93
2021/07/04 15:54:11;;;;;;;;;;;;;;;;;;4967446;28;19918;-95
2021/07/04 15:56:40;;;;;;;;;;;;;;;;;;4959398;28;19932;-91
2021/07/04 15:59:09;;;;;;;;;;;;;;;;;;4944624;28;20398;-90
2021/07/04 16:01:47;;;;;;;;;;;;;;;;;;4944830;28;19933;-91
2021/07/04 16:04:31;;;;;;;;;;;;;;;;;;4962176;28;20420;-91
2021/07/04 16:06:59;;;;;;;;;;;;;;;;;;4953661;28;19937;-92
2021/07/04 16:09:27;;;;;;;;;;;;;;;;;;4967534;28;19916;-94
2021/07/04 16:11:56;;;;;;;;;;;;;;;;;;4966105;28;19932;-94
2021/07/04 16:14:24;;;;;;;;;;;;;;;;;;4983214;28;19922;-93
2021/07/04 16:16:55;;;;;;;;;;;;;;;;;;4964709;28;19917;-92
2021/07/04 16:19:23;;;;;;;;;;;;;;;;;;4983706;28;19910;-92
2021/07/04 16:21:51;;;;;;;;;;;;;;;;;;4968653;28;19916;-92
2021/07/04 16:24:20;;;;;;;;;;;;;;;;;;4976485;28;19933;-93
2021/07/04 16:26:50;;;;;;;;;;;;;;;;;;4979961;28;19910;-94
2021/07/04 16:32:52;;;;;;;;;;;;;;;;;;4969127;28;19910;-92
2021/07/04 16:35:21;;;;;;;;;;;;;;;;;;4983234;28;19927;-93
2021/07/04 16:38:05;;;;;;;;;;;;;;;;;;4991904;28;19917;-92
2021/07/04 16:40:34;;;;;;;;;;;;;;;;;;4980129;28;19917;-94
2021/07/04 16:43:03;;;;;;;;;;;;;;;;;;4964459;28;19911;-95
2021/07/04 16:45:31;;;;;;;;;;;;;;;;;;4966916;28;19928;-93
2021/07/04 16:48:01;;;;;;;;;;;;;;;;;;4973091;28;19949;-93
2021/07/04 16:50:30;;;;;;;;;;;;;;;;;;4978456;28;19926;-93
2021/07/04 16:52:58;;;;;;;;;;;;;;;;;;4979455;28;19914;-94
2021/07/04 16:55:27;;;;;;;;;;;;;;;;;;4963323;28;19926;-94
2021/07/04 16:57:55;;;;;;;;;;;;;;;;;;4964750;28;19926;-94
2021/07/04 17:00:45;;;;;;;;;;;;;;;;;;4948916;28;19926;-94
2021/07/04 17:03:17;;;;;;;;;;;;;;;;;;4943450;28;19933;-93
2021/07/04 17:05:47;;;;;;;;;;;;;;;;;;4946715;28;19937;-96
2021/07/04 17:08:17;;;;;;;;;;;;;;;;;;4959756;28;20413;-88
2021/07/04 17:10:45;;;;;;;;;;;;;;;;;;4944272;28;19926;-94
2021/07/04 17:13:13;;;;;;;;;;;;;;;;;;4960018;29;19930;-94
2021/07/04 17:15:41;;;;;;;;;;;;;;;;;;4970369;28;19926;-92
2021/07/04 17:21:18;;;;;;;;;;;;;;;;;;4966096;28;19914;-95
2021/07/04 17:23:48;;;;;;;;;;;;;;;;;;4982217;28;19926;-95
2021/07/04 17:26:20;;;;;;;;;;;;;;;;;;4981453;28;19920;-95
2021/07/04 17:28:48;;;;;;;;;;;;;;;;;;4982245;28;19910;-96